Terminal Aerodrome Forecast
Issued by NWS

Home | Current Version | Previous Version | Text Only | Print | Product List | Glossary Off
Versions: 1 2 3 4 5 6 7 8 9 10 11 12 13 14 15 16 17 18 19 20

000
FTUS43 KBIS 281701 AAA
TAFDIK
TAF AMD
KDIK 281701Z 2817/2912 12008KT P6SM BKN110
     FM282000 13007KT P6SM SCT050 SCT130
     FM282200 14006KT P6SM BKN070
     FM290500 17006KT P6SM BKN060
     FM290800 19005KT P6SM BKN025=

USA.gov is the U.S. government's official web portal to all federal, state and local government web resources and services.